Time;durP1;ratioP1;P1;durP2;ratioP2;P2;SDS_P1;SDS_P2;PMS_P1;PMS_P2;Temp;Humidity;BMP_temperature;BMP_pressure;BME280_temperature;BME280_humidity;BME280_pressure;Samples;Min_cycle;Max_cycle;Signal;HPM_P1;HPM_P2
2022/08/21 00:03:12;;;;;;;9.65;8.65;;;27.60;60.20;;;;;;4911428;52;21015;-30
2022/08/21 00:08:13;;;;;;;10.63;9.52;;;27.60;60.20;;;;;;4930293;52;20987;-32
2022/08/21 00:13:14;;;;;;;10.82;9.55;;;27.60;60.30;;;;;;4929238;52;21020;-33
2022/08/21 00:18:16;;;;;;;10.05;9.05;;;27.60;60.30;;;;;;4934991;52;20968;-28
2022/08/21 00:23:17;;;;;;;10.43;9.32;;;27.60;60.20;;;;;;4920633;52;21016;-33
2022/08/21 00:28:19;;;;;;;9.93;8.90;;;27.60;60.20;;;;;;4960807;52;20995;-37
2022/08/21 00:33:20;;;;;;;10.10;9.10;;;27.60;60.20;;;;;;4959632;52;21462;-33
2022/08/21 00:38:21;;;;;;;9.88;8.88;;;27.60;60.20;;;;;;4937104;52;20991;-33
2022/08/21 00:43:27;;;;;;;10.15;8.40;;;27.60;60.20;;;;;;4939208;52;21050;-36
2022/08/21 00:48:28;;;;;;;9.68;8.77;;;27.60;60.30;;;;;;4931443;52;21477;-37
2022/08/21 00:53:30;;;;;;;9.77;8.82;;;27.60;60.20;;;;;;4909310;56;22054;-25
2022/08/21 00:58:32;;;;;;;9.60;8.60;;;27.60;60.20;;;;;;4910396;56;21587;-36
2022/08/21 01:03:36;;;;;;;9.63;8.63;;;27.60;60.30;;;;;;4917955;52;21437;-26
2022/08/21 01:08:37;;;;;;;10.68;9.18;;;27.60;60.30;;;;;;4929786;52;20990;-34
2022/08/21 01:13:45;;;;;;;10.32;9.00;;;27.60;60.30;;;;;;4913864;52;20991;-34
2022/08/21 01:18:47;;;;;;;9.15;8.20;;;27.60;60.20;;;;;;4930563;52;21464;-32
2022/08/21 01:23:52;;;;;;;9.68;8.68;;;27.50;60.20;;;;;;4917051;52;22430;-26
2022/08/21 01:29:26;;;;;;;9.25;8.32;;;27.60;60.30;;;;;;4913618;52;21030;-34
2022/08/21 01:34:27;;;;;;;9.20;8.30;;;27.60;60.30;;;;;;4941727;52;20971;-34
2022/08/21 01:39:29;;;;;;;9.75;8.80;;;27.50;60.20;;;;;;4909876;56;21004;-36
2022/08/21 01:44:30;;;;;;;8.85;7.95;;;27.50;60.80;;;;;;4953980;52;20982;-37
2022/08/21 01:49:31;;;;;;;9.27;8.27;;;27.50;60.20;;;;;;5003729;52;21564;-36
2022/08/21 01:54:32;;;;;;;9.88;8.48;;;27.50;60.30;;;;;;4919345;52;20970;-37
2022/08/21 01:59:33;;;;;;;8.85;7.95;;;27.50;60.20;;;;;;4944075;52;20999;-33
2022/08/21 02:04:34;;;;;;;9.02;8.13;;;27.60;60.30;;;;;;4921305;52;20963;-32
2022/08/21 02:09:35;;;;;;;9.13;8.23;;;27.50;60.20;;;;;;4919141;52;21082;-30
2022/08/21 02:14:35;;;;;;;8.77;7.87;;;27.50;60.30;;;;;;4925178;52;20963;-35
2022/08/21 02:19:38;;;;;;;9.15;7.75;;;27.50;60.90;;;;;;4920999;52;20985;-26
2022/08/21 02:24:40;;;;;;;8.90;8.00;;;27.50;60.30;;;;;;4956801;52;20967;-35
2022/08/21 02:29:41;;;;;;;8.77;7.87;;;27.50;60.20;;;;;;4910210;53;21002;-36
2022/08/21 02:34:42;;;;;;;8.57;7.78;;;27.50;60.30;;;;;;4913144;52;21014;-36
2022/08/21 02:39:43;;;;;;;8.77;7.80;;;27.50;60.30;;;;;;4947412;52;21505;-36
2022/08/21 02:44:44;;;;;;;8.60;7.70;;;27.50;60.30;;;;;;4913700;52;20970;-36
2022/08/21 02:49:44;;;;;;;7.85;7.05;;;27.50;60.30;;;;;;4995847;52;21007;-34
2022/08/21 02:54:45;;;;;;;8.00;7.30;;;27.50;60.30;;;;;;4931993;52;21050;-31
2022/08/21 02:59:46;;;;;;;7.85;7.15;;;27.50;60.30;;;;;;4933979;52;20963;-38
2022/08/21 03:04:47;;;;;;;7.97;7.18;;;27.50;60.30;;;;;;4941438;52;21452;-34
2022/08/21 03:09:48;;;;;;;7.85;7.10;;;27.50;60.30;;;;;;4920307;52;21027;-34
2022/08/21 03:14:49;;;;;;;7.95;7.15;;;27.50;60.30;;;;;;4946020;52;21121;-39
2022/08/21 03:19:50;;;;;;;8.15;7.35;;;27.50;60.30;;;;;;4918901;52;21003;-27
2022/08/21 03:24:51;;;;;;;8.50;7.70;;;27.50;60.30;;;;;;4909866;56;20988;-36
2022/08/21 03:29:52;;;;;;;8.85;7.07;;;27.60;60.40;;;;;;4921870;52;20999;-36
2022/08/21 03:34:53;;;;;;;8.10;7.22;;;27.50;60.40;;;;;;4923286;52;20986;-34
2022/08/21 03:39:54;;;;;;;7.55;6.85;;;27.50;60.40;;;;;;4909479;56;21046;-33
2022/08/21 03:44:55;;;;;;;7.40;6.78;;;27.50;60.30;;;;;;4922499;52;21493;-37
2022/08/21 03:49:55;;;;;;;7.68;6.90;;;27.50;60.50;;;;;;4908770;56;20995;-25
2022/08/21 03:54:56;;;;;;;6.93;6.25;;;27.50;60.30;;;;;;4910099;56;20960;-35
2022/08/21 03:59:57;;;;;;;7.28;6.50;;;27.50;60.40;;;;;;4952120;52;21445;-36
2022/08/21 04:04:58;;;;;;;7.43;6.72;;;27.50;60.40;;;;;;4917308;52;20984;-38
2022/08/21 04:09:59;;;;;;;7.43;6.57;;;27.50;60.40;;;;;;4924416;52;21039;-35
2022/08/21 04:15:01;;;;;;;8.07;7.10;;;27.50;60.40;;;;;;4944036;52;20979;-32
2022/08/21 04:20:03;;;;;;;7.80;6.90;;;27.50;60.40;;;;;;4924049;52;21676;-28
2022/08/21 04:25:04;;;;;;;7.50;6.75;;;27.50;60.40;;;;;;4909716;52;20960;-35
2022/08/21 04:30:07;;;;;;;7.53;6.82;;;27.50;60.40;;;;;;4923096;52;21058;-38
2022/08/21 04:35:10;;;;;;;8.45;7.00;;;27.50;60.40;;;;;;4944749;52;21074;-35
2022/08/21 04:40:14;;;;;;;7.37;6.68;;;27.50;60.40;;;;;;4943528;52;20979;-36
2022/08/21 04:45:23;;;;;;;7.28;6.55;;;27.50;60.40;;;;;;4936791;52;20992;-36
2022/08/21 04:50:38;;;;;;;7.80;7.00;;;27.50;60.40;;;;;;4908849;56;21038;-26
2022/08/21 04:55:41;;;;;;;7.03;6.32;;;27.50;60.40;;;;;;4937428;52;21388;-32
2022/08/21 05:00:43;;;;;;;6.87;6.28;;;27.50;60.40;;;;;;4953147;52;22027;-35
2022/08/21 05:05:44;;;;;;;7.05;6.45;;;27.50;60.50;;;;;;4924588;52;21098;-38
2022/08/21 05:10:45;;;;;;;7.10;6.35;;;27.50;60.40;;;;;;4959186;52;21090;-34
2022/08/21 05:15:46;;;;;;;7.55;6.80;;;27.50;60.40;;;;;;4930877;52;21022;-37
2022/08/21 05:20:46;;;;;;;8.07;7.28;;;27.50;60.40;;;;;;4920632;52;21003;-34
2022/08/21 05:25:47;;;;;;;8.25;7.43;;;27.50;60.40;;;;;;4913742;52;20975;-35
2022/08/21 05:30:48;;;;;;;7.15;6.53;;;27.50;60.50;;;;;;4920055;52;21054;-34
2022/08/21 05:35:57;;;;;;;8.80;7.07;;;27.50;60.40;;;;;;4934087;52;20971;-33
2022/08/21 05:40:59;;;;;;;7.55;6.85;;;27.50;60.40;;;;;;4936104;52;20967;-25
2022/08/21 05:46:04;;;;;;;8.40;7.05;;;27.50;60.40;;;;;;4960969;52;20978;-25
2022/08/21 05:51:08;;;;;;;7.65;6.95;;;27.50;60.40;;;;;;4909473;56;20999;-35
2022/08/21 05:56:10;;;;;;;7.35;6.65;;;27.50;60.40;;;;;;4922879;52;21510;-26
2022/08/21 06:01:11;;;;;;;7.43;6.70;;;27.50;60.40;;;;;;4950204;52;21462;-36
2022/08/21 06:06:11;;;;;;;7.40;6.45;;;27.50;60.40;;;;;;4922377;52;21001;-37
2022/08/21 06:11:12;;;;;;;6.90;6.28;;;27.50;60.40;;;;;;4912866;52;21003;-35
2022/08/21 06:16:15;;;;;;;6.70;6.05;;;27.50;60.40;;;;;;4924140;52;21465;-35
2022/08/21 06:21:16;;;;;;;7.30;6.60;;;27.50;60.40;;;;;;4941090;52;21034;-38
2022/08/21 06:26:17;;;;;;;7.47;6.75;;;27.50;60.40;;;;;;4919832;52;21059;-38
2022/08/21 06:31:22;;;;;;;7.12;6.47;;;27.40;60.30;;;;;;4908591;56;21700;-37
2022/08/21 06:36:24;;;;;;;8.20;6.95;;;27.40;60.30;;;;;;4929099;52;20975;-33
2022/08/21 06:41:25;;;;;;;7.25;6.55;;;27.40;60.30;;;;;;4909936;56;21004;-36
2022/08/21 06:46:28;;;;;;;6.62;6.03;;;27.40;60.30;;;;;;4912921;52;21022;-36
2022/08/21 06:51:29;;;;;;;6.57;5.95;;;27.50;60.30;;;;;;4934495;52;21505;-30
2022/08/21 06:56:30;;;;;;;7.12;5.97;;;27.40;60.20;;;;;;4921774;52;21030;-38
2022/08/21 07:01:31;;;;;;;7.68;6.37;;;27.40;60.20;;;;;;4937469;52;20991;-36
2022/08/21 07:06:32;;;;;;;7.40;6.70;;;27.40;60.20;;;;;;4936046;52;21011;-31
2022/08/21 07:11:35;;;;;;;6.95;6.25;;;27.40;60.20;;;;;;4935998;52;21103;-34
2022/08/21 07:16:36;;;;;;;6.68;6.00;;;27.40;60.20;;;;;;4960867;52;21035;-33
2022/08/21 07:21:37;;;;;;;6.95;6.25;;;27.40;60.20;;;;;;4939322;52;21019;-27
2022/08/21 07:26:42;;;;;;;7.22;6.55;;;27.40;60.20;;;;;;4955576;52;21446;-27
2022/08/21 07:31:43;;;;;;;6.70;6.10;;;27.40;60.20;;;;;;4909402;56;21603;-36
2022/08/21 07:36:43;;;;;;;7.28;6.50;;;27.40;60.20;;;;;;4928577;52;21019;-33
2022/08/21 07:41:44;;;;;;;6.50;5.90;;;27.40;60.20;;;;;;4929648;52;21008;-37
2022/08/21 07:46:45;;;;;;;6.55;5.85;;;27.40;60.20;;;;;;4910138;56;21014;-35
2022/08/21 07:51:46;;;;;;;7.25;6.47;;;27.40;60.10;;;;;;4956149;52;22604;-36
2022/08/21 07:56:47;;;;;;;6.93;6.32;;;27.40;60.20;;;;;;4946312;52;21035;-30
2022/08/21 08:01:48;;;;;;;7.00;6.30;;;27.40;60.10;;;;;;4952436;52;21007;-32
2022/08/21 08:06:49;;;;;;;7.32;6.43;;;27.40;60.10;;;;;;4910213;56;21023;-34
2022/08/21 08:11:49;;;;;;;7.55;6.30;;;27.40;60.10;;;;;;4919994;52;21019;-33
2022/08/21 08:16:50;;;;;;;8.38;6.53;;;27.40;60.10;;;;;;4931965;52;20975;-35
2022/08/21 08:21:51;;;;;;;7.20;6.50;;;27.40;60.10;;;;;;4957080;52;21047;-36
2022/08/21 08:26:53;;;;;;;8.13;7.00;;;27.40;60.20;;;;;;4922029;52;21505;-29
2022/08/21 08:31:54;;;;;;;9.35;6.87;;;27.40;60.10;;;;;;4910067;52;21532;-35
2022/08/21 08:36:57;;;;;;;7.85;7.05;;;27.40;60.40;;;;;;4959340;52;21031;-37
2022/08/21 08:42:06;;;;;;;7.43;6.50;;;27.40;60.80;;;;;;4927234;52;22362;-25
2022/08/21 08:47:10;;;;;;;8.35;7.07;;;27.40;60.00;;;;;;4914058;52;20991;-38
2022/08/21 08:52:21;;;;;;;8.15;7.35;;;27.40;60.00;;;;;;4934225;52;21037;-38
2022/08/21 08:57:24;;;;;;;8.30;7.50;;;27.40;60.00;;;;;;4975259;52;20967;-37
2022/08/21 09:02:27;;;;;;;8.32;7.20;;;27.40;60.00;;;;;;4995810;52;21520;-26
2022/08/21 09:09:25;;;;;;;10.05;7.95;;;27.40;60.00;;;;;;4909609;53;21330;-37
2022/08/21 09:15:07;;;;;;;10.88;8.15;;;27.40;60.00;;;;;;4909854;56;20968;-36
2022/08/21 09:24:31;;;;;;;11.07;8.25;;;27.40;60.00;;;;;;4949408;52;20963;-26
2022/08/21 09:29:36;;;;;;;10.02;8.38;;;27.40;60.00;;;;;;4917325;52;21493;-32
2022/08/21 09:34:37;;;;;;;9.43;8.23;;;27.40;60.00;;;;;;4910659;56;21054;-34
2022/08/21 09:39:39;;;;;;;11.38;8.68;;;27.30;59.90;;;;;;4912217;52;21465;-39
2022/08/21 09:44:43;;;;;;;12.07;9.35;;;27.40;60.00;;;;;;4918335;52;20978;-32
2022/08/21 09:49:44;;;;;;;11.07;8.32;;;27.30;59.80;;;;;;4913298;52;21554;-34
2022/08/21 09:54:46;;;;;;;10.57;8.55;;;27.30;59.80;;;;;;4910055;52;20991;-39
2022/08/21 09:59:47;;;;;;;11.60;8.30;;;27.30;59.80;;;;;;4911989;52;21034;-38
2022/08/21 10:04:54;;;;;;;11.85;9.32;;;27.40;59.90;;;;;;4924934;52;20979;-35
2022/08/21 10:10:14;;;;;;;10.95;8.68;;;27.30;59.80;;;;;;4945855;52;21110;-37
2022/08/21 10:16:59;;;;;;;10.25;9.15;;;27.30;59.80;;;;;;4910225;56;21004;-31
2022/08/21 10:23:52;;;;;;;12.03;9.30;;;27.40;59.90;;;;;;4935634;52;21026;-36
2022/08/21 10:29:22;;;;;;;11.15;9.43;;;27.30;59.80;;;;;;4915514;52;21493;-25
2022/08/21 10:34:50;;;;;;;11.63;9.70;;;27.30;59.80;;;;;;4910244;52;21532;-38
2022/08/21 10:43:03;;;;;;;12.60;9.82;;;27.30;59.80;;;;;;4929625;52;20971;-33
2022/08/21 10:48:08;;;;;;;10.75;9.65;;;27.30;59.80;;;;;;4918819;52;21011;-38
2022/08/21 10:56:41;;;;;;;11.12;10.02;;;27.30;59.80;;;;;;4930223;52;21548;-37
2022/08/21 11:02:26;;;;;;;11.50;10.35;;;27.30;59.90;;;;;;4911255;52;21062;-36
2022/08/21 11:07:45;;;;;;;12.10;10.73;;;27.30;59.90;;;;;;4929415;52;21524;-29
2022/08/21 11:13:07;;;;;;;13.80;11.27;;;27.30;59.90;;;;;;4908791;56;21059;-35
2022/08/21 11:18:41;;;;;;;13.55;11.27;;;27.30;59.80;;;;;;4930906;52;21461;-29
2022/08/21 11:24:15;;;;;;;14.73;10.90;;;27.30;59.90;;;;;;4912083;52;20979;-37
2022/08/21 11:29:31;;;;;;;14.18;11.77;;;27.30;59.90;;;;;;4909700;56;20980;-36
2022/08/21 11:38:13;;;;;;;13.95;12.55;;;27.30;59.90;;;;;;4917359;52;21031;-32
2022/08/21 11:45:14;;;;;;;14.95;11.98;;;27.30;60.00;;;;;;4949554;52;20995;-37
2022/08/21 11:50:21;;;;;;;16.70;12.57;;;27.30;59.90;;;;;;4930869;52;20999;-31
2022/08/21 11:55:38;;;;;;;;;;;27.30;59.90;;;;;;4912937;56;20999;-32
2022/08/21 12:00:46;;;;;;;14.20;12.52;;;27.30;60.00;;;;;;4924311;52;20116;-37
2022/08/21 12:05:59;;;;;;;16.12;12.77;;;27.30;59.90;;;;;;4911856;52;21002;-33
2022/08/21 12:11:36;;;;;;;14.15;12.27;;;27.30;59.90;;;;;;4916781;52;21094;-27
2022/08/21 12:16:46;;;;;;;14.15;12.00;;;27.30;59.90;;;;;;4910279;56;20984;-26
2022/08/21 12:21:58;;;;;;;14.38;12.70;;;27.30;59.90;;;;;;4945158;52;20982;-27
2022/08/21 12:27:13;;;;;;;15.95;12.98;;;27.30;59.90;;;;;;4947005;52;21027;-30
2022/08/21 12:33:50;;;;;;;16.60;13.68;;;27.30;59.90;;;;;;4936617;52;21007;-25
2022/08/21 12:39:11;;;;;;;15.55;13.38;;;27.30;60.40;;;;;;4955770;52;21043;-30
2022/08/21 12:44:17;;;;;;;16.80;13.95;;;27.30;59.90;;;;;;4927907;52;21011;-40
2022/08/21 12:49:48;;;;;;;15.70;13.77;;;27.30;59.90;;;;;;4935556;52;21485;-27
2022/08/21 12:54:49;;;;;;;15.93;13.60;;;27.30;59.90;;;;;;4921470;52;21051;-37
2022/08/21 13:00:05;;;;;;;16.37;13.82;;;27.30;59.90;;;;;;4912753;52;21639;-36
2022/08/21 13:05:12;;;;;;;14.80;12.37;;;27.30;59.90;;;;;;4920789;52;21528;-37
2022/08/21 13:10:30;;;;;;;15.82;13.68;;;27.30;59.90;;;;;;4909355;56;21015;-37
2022/08/21 13:15:40;;;;;;;15.02;13.40;;;27.30;59.90;;;;;;4931279;52;21019;-27
2022/08/21 13:20:42;;;;;;;17.27;13.48;;;27.30;59.90;;;;;;4941834;52;21003;-28
2022/08/21 13:25:42;;;;;;;15.75;14.00;;;27.30;59.90;;;;;;4922743;52;21534;-35
2022/08/21 13:30:50;;;;;;;17.05;14.57;;;27.30;60.00;;;;;;4921944;52;21011;-28
2022/08/21 13:36:20;;;;;;;15.95;14.25;;;27.30;59.90;;;;;;4924683;52;20979;-38
2022/08/21 13:41:33;;;;;;;18.62;15.65;;;27.30;59.90;;;;;;4927919;52;20987;-36
2022/08/21 13:46:36;;;;;;;17.05;15.20;;;27.30;59.90;;;;;;4933446;52;21023;-33
2022/08/21 13:51:37;;;;;;;17.98;15.98;;;27.30;59.90;;;;;;4923983;52;21059;-31
2022/08/21 13:56:44;;;;;;;19.12;15.52;;;27.30;59.90;;;;;;4909472;56;21090;-37
2022/08/21 14:01:59;;;;;;;20.15;16.50;;;27.30;59.90;;;;;;4966957;52;20960;-39
2022/08/21 14:07:01;;;;;;;21.85;16.45;;;27.30;59.90;;;;;;4984740;52;21429;-36
2022/08/21 14:12:23;;;;;;;21.48;18.42;;;27.30;59.90;;;;;;4939151;52;21082;-33
2022/08/21 14:17:39;;;;;;;23.15;17.35;;;27.20;59.80;;;;;;4948297;52;21032;-33
2022/08/21 14:22:47;;;;;;;22.70;18.45;;;27.20;59.80;;;;;;4912037;52;21493;-34
2022/08/21 14:29:17;;;;;;;22.00;18.60;;;27.30;60.50;;;;;;4929052;52;20982;-42
2022/08/21 14:34:19;;;;;;;20.95;18.40;;;27.30;59.90;;;;;;4928165;52;21022;-35
2022/08/21 14:39:20;;;;;;;23.27;18.67;;;27.30;59.80;;;;;;4930201;52;21007;-36
2022/08/21 14:44:21;;;;;;;23.85;19.08;;;27.30;59.80;;;;;;4911487;52;21000;-36
2022/08/21 14:49:25;;;;;;;20.42;18.20;;;27.30;59.80;;;;;;4929990;52;21437;-36
2022/08/21 14:54:31;;;;;;;22.20;19.08;;;27.20;59.80;;;;;;4952721;52;21517;-29
2022/08/21 14:59:32;;;;;;;24.25;18.45;;;27.30;59.80;;;;;;4942743;52;20949;-35
2022/08/21 15:04:34;;;;;;;22.30;18.17;;;27.30;59.80;;;;;;4925586;52;21867;-35
2022/08/21 15:09:35;;;;;;;25.35;19.55;;;27.30;59.80;;;;;;4928526;52;21078;-31
2022/08/21 15:14:40;;;;;;;23.02;18.35;;;27.20;59.70;;;;;;4909768;56;21074;-36
2022/08/21 15:19:40;;;;;;;24.08;18.80;;;27.20;60.40;;;;;;4910522;52;21103;-34
2022/08/21 15:24:42;;;;;;;23.83;19.05;;;27.20;59.70;;;;;;4910938;52;21055;-37
2022/08/21 15:29:43;;;;;;;24.02;19.05;;;27.30;59.80;;;;;;4911420;52;21031;-32
2022/08/21 15:34:44;;;;;;;23.95;18.05;;;27.30;59.80;;;;;;4910262;52;21463;-32
2022/08/21 15:39:45;;;;;;;23.73;18.52;;;27.20;59.70;;;;;;4917717;52;20975;-30
2022/08/21 15:44:47;;;;;;;22.75;18.62;;;27.20;59.70;;;;;;4911778;52;20988;-28
2022/08/21 15:49:48;;;;;;;21.23;18.27;;;27.30;59.80;;;;;;4937741;52;21043;-29
2022/08/21 15:54:50;;;;;;;20.67;17.77;;;27.30;59.80;;;;;;4937232;52;21485;-33
2022/08/21 16:00:15;;;;;;;20.73;18.27;;;27.20;59.80;;;;;;4946804;52;21030;-28
2022/08/21 16:05:16;;;;;;;22.45;17.55;;;27.20;59.70;;;;;;4950299;52;20979;-28
2022/08/21 16:10:22;;;;;;;21.23;17.77;;;27.20;59.70;;;;;;4920954;52;21568;-37
2022/08/21 16:15:23;;;;;;;20.20;17.20;;;27.20;59.70;;;;;;4924405;52;21098;-30
2022/08/21 16:20:27;;;;;;;20.92;17.15;;;27.20;59.80;;;;;;4912949;52;20964;-34
2022/08/21 16:25:38;;;;;;;19.65;17.40;;;27.20;59.80;;;;;;4965426;52;21003;-29
2022/08/21 16:30:39;;;;;;;21.00;17.62;;;27.20;59.70;;;;;;4918352;52;20983;-31
2022/08/21 16:35:40;;;;;;;20.25;16.80;;;27.20;59.80;;;;;;4910138;56;21063;-38
2022/08/21 16:40:41;;;;;;;19.62;16.83;;;27.20;59.70;;;;;;4918789;52;22065;-33
2022/08/21 16:45:42;;;;;;;19.77;16.75;;;27.20;59.70;;;;;;4929090;52;21063;-36
2022/08/21 16:50:46;;;;;;;19.83;16.45;;;27.20;59.80;;;;;;4938214;52;21058;-28
2022/08/21 16:55:49;;;;;;;20.65;17.33;;;27.20;59.80;;;;;;4930156;52;21039;-35
2022/08/21 17:00:50;;;;;;;19.20;17.00;;;27.20;59.70;;;;;;4948052;52;21521;-27
2022/08/21 17:05:51;;;;;;;21.35;17.02;;;27.20;59.80;;;;;;4910941;52;21035;-27
2022/08/21 17:10:52;;;;;;;18.37;15.80;;;27.20;59.80;;;;;;4916654;52;21027;-28
2022/08/21 17:15:53;;;;;;;18.40;16.33;;;27.20;59.80;;;;;;4909792;56;21099;-28
2022/08/21 17:20:54;;;;;;;17.30;15.45;;;27.20;59.80;;;;;;4910405;52;21067;-27
2022/08/21 17:25:56;;;;;;;18.73;16.50;;;27.20;59.80;;;;;;4956674;52;21493;-28
2022/08/21 17:31:01;;;;;;;20.60;16.80;;;27.20;59.80;;;;;;4933256;52;21533;-29
2022/08/21 17:36:02;;;;;;;18.37;16.30;;;27.20;59.80;;;;;;4968650;52;21547;-36
2022/08/21 17:41:05;;;;;;;18.92;15.43;;;27.20;59.80;;;;;;4943206;52;21480;-36
2022/08/21 17:46:06;;;;;;;18.60;15.70;;;27.20;59.80;;;;;;4929693;52;21576;-38
2022/08/21 17:51:10;;;;;;;19.30;15.80;;;27.20;59.80;;;;;;4909222;56;21500;-34
2022/08/21 17:56:13;;;;;;;19.95;17.52;;;27.20;60.50;;;;;;4912438;52;21445;-34
2022/08/21 18:01:15;;;;;;;18.45;16.10;;;27.20;59.80;;;;;;4914583;52;20987;-36
2022/08/21 18:06:16;;;;;;;18.65;15.65;;;27.20;59.80;;;;;;4917258;52;20991;-31
2022/08/21 18:11:22;;;;;;;18.92;16.73;;;27.20;59.80;;;;;;4913388;52;21961;-33
2022/08/21 18:16:23;;;;;;;18.52;16.23;;;27.20;59.90;;;;;;4917773;52;20984;-26
2022/08/21 18:21:24;;;;;;;19.65;16.30;;;27.20;59.90;;;;;;4940260;52;21003;-27
2022/08/21 18:26:31;;;;;;;18.98;15.75;;;27.20;59.90;;;;;;4953970;52;21584;-27
2022/08/21 18:31:34;;;;;;;20.17;16.37;;;27.20;60.00;;;;;;4976386;52;20972;-39
2022/08/21 18:36:35;;;;;;;19.98;16.27;;;27.20;60.00;;;;;;4934479;52;21164;-32
2022/08/21 18:41:36;;;;;;;18.67;15.68;;;27.20;60.00;;;;;;4912447;52;21093;-34
2022/08/21 18:46:37;;;;;;;19.25;15.98;;;27.20;60.00;;;;;;4913443;52;22196;-34
2022/08/21 18:51:38;;;;;;;16.73;14.95;;;27.20;60.00;;;;;;4936962;52;21055;-34
2022/08/21 18:56:39;;;;;;;18.83;14.60;;;27.20;60.10;;;;;;4944455;52;21041;-36
2022/08/21 19:01:41;;;;;;;17.17;14.10;;;27.20;60.10;;;;;;4977043;52;20974;-33
2022/08/21 19:06:42;;;;;;;18.62;15.88;;;27.10;60.00;;;;;;4970992;52;20987;-36
2022/08/21 19:11:43;;;;;;;17.12;14.13;;;27.10;60.00;;;;;;4909742;52;21405;-34
2022/08/21 19:16:46;;;;;;;16.15;13.98;;;27.10;60.00;;;;;;4909669;53;21003;-32
2022/08/21 19:21:47;;;;;;;16.02;13.27;;;27.10;60.10;;;;;;4926201;52;21497;-27
2022/08/21 19:26:48;;;;;;;17.23;14.60;;;27.10;60.10;;;;;;4909962;53;21066;-26
2022/08/21 19:31:49;;;;;;;17.05;13.77;;;27.10;60.10;;;;;;4934084;52;20972;-38
2022/08/21 19:36:50;;;;;;;15.55;13.10;;;27.10;60.20;;;;;;4950069;52;21035;-33
2022/08/21 19:41:55;;;;;;;16.27;13.52;;;27.10;60.10;;;;;;4930376;52;21011;-37
2022/08/21 19:46:57;;;;;;;14.35;12.75;;;27.20;60.20;;;;;;4966243;52;21453;-27
2022/08/21 19:51:58;;;;;;;15.68;13.18;;;27.20;60.20;;;;;;4939294;52;21015;-36
2022/08/21 19:57:02;;;;;;;14.85;12.68;;;27.10;60.20;;;;;;4909883;56;21030;-27
2022/08/21 20:02:04;;;;;;;14.73;12.57;;;27.10;60.20;;;;;;4932247;52;21053;-36
2022/08/21 20:07:05;;;;;;;15.40;12.85;;;27.10;60.20;;;;;;4935156;52;21488;-37
2022/08/21 20:12:08;;;;;;;14.75;12.52;;;27.10;60.20;;;;;;4908983;56;21491;-34
2022/08/21 20:17:12;;;;;;;14.87;13.05;;;27.10;60.20;;;;;;4936698;52;21596;-33
2022/08/21 20:22:13;;;;;;;15.20;13.13;;;27.10;60.20;;;;;;4916154;52;21003;-30
2022/08/21 20:27:20;;;;;;;14.90;12.63;;;27.10;60.20;;;;;;4910611;53;21461;-33
2022/08/21 20:32:21;;;;;;;13.73;11.77;;;27.10;60.20;;;;;;4912798;52;21038;-32
2022/08/21 20:37:22;;;;;;;13.68;12.27;;;27.10;60.20;;;;;;4938417;52;21589;-30
2022/08/21 20:42:23;;;;;;;13.90;11.73;;;27.10;60.30;;;;;;4914008;52;21051;-37
2022/08/21 20:47:24;;;;;;;15.65;11.73;;;27.10;60.30;;;;;;4920991;52;20999;-35
2022/08/21 20:52:25;;;;;;;12.63;11.23;;;27.10;60.30;;;;;;4910986;52;20980;-32
2022/08/21 20:57:47;;;;;;;13.45;11.75;;;27.10;60.30;;;;;;4935112;52;21003;-33
2022/08/21 21:03:11;;;;;;;14.10;11.48;;;27.10;60.30;;;;;;4910238;56;21615;-36
2022/08/21 21:08:22;;;;;;;13.38;11.35;;;27.10;60.30;;;;;;4910896;52;21549;-30
2022/08/21 21:13:33;;;;;;;14.10;11.40;;;27.10;60.30;;;;;;4908839;56;21505;-28
2022/08/21 21:18:45;;;;;;;12.80;11.10;;;27.10;60.30;;;;;;4914561;52;21050;-37
2022/08/21 21:25:25;;;;;;;12.37;10.82;;;27.10;60.30;;;;;;4916856;52;20975;-27
2022/08/21 21:30:36;;;;;;;11.88;10.63;;;27.10;60.30;;;;;;4914353;52;21075;-34
2022/08/21 21:35:44;;;;;;;12.30;10.82;;;27.10;60.30;;;;;;4913062;52;21015;-33
2022/08/21 21:44:10;;;;;;;12.20;10.85;;;27.10;60.30;;;;;;4961029;52;20983;-31
2022/08/21 21:49:53;;;;;;;12.52;10.23;;;27.10;60.30;;;;;;4942945;52;20991;-37
2022/08/21 21:56:02;;;;;;;11.85;10.60;;;27.10;60.40;;;;;;4917805;52;21074;-28
2022/08/21 22:03:51;;;;;;;11.57;10.30;;;27.10;60.40;;;;;;4917974;52;21082;-37
2022/08/21 22:09:17;;;;;;;12.00;10.73;;;27.10;60.40;;;;;;4914450;52;21018;-37
2022/08/21 22:14:19;;;;;;;13.17;10.40;;;27.10;60.40;;;;;;4914245;52;20973;-32
2022/08/21 22:19:25;;;;;;;11.05;9.90;;;27.10;60.40;;;;;;4911796;52;21086;-33
2022/08/21 22:24:30;;;;;;;10.47;9.37;;;27.10;60.40;;;;;;4924650;52;21465;-28
2022/08/21 22:29:47;;;;;;;10.93;9.25;;;27.00;60.30;;;;;;4923446;52;21581;-37
2022/08/21 22:35:14;;;;;;;12.30;10.02;;;27.00;60.30;;;;;;4929588;52;21477;-33
2022/08/21 22:40:37;;;;;;;10.70;9.32;;;27.00;60.30;;;;;;4925410;52;21600;-28
2022/08/21 22:46:07;;;;;;;12.23;9.90;;;27.10;60.40;;;;;;4933716;52;20959;-37
2022/08/21 22:51:25;;;;;;;10.85;9.75;;;27.00;60.40;;;;;;4928965;52;21157;-28
2022/08/21 22:56:59;;;;;;;10.52;9.45;;;27.10;60.40;;;;;;4915480;52;21545;-34
2022/08/21 23:02:22;;;;;;;11.02;9.38;;;27.10;60.40;;;;;;4932104;52;21461;-35
2022/08/21 23:07:39;;;;;;;10.15;9.05;;;27.10;60.40;;;;;;4910002;56;21039;-38
2022/08/21 23:12:40;;;;;;;11.12;9.98;;;27.00;60.40;;;;;;4916721;52;21464;-31
2022/08/21 23:19:55;;;;;;;10.30;8.85;;;27.00;60.40;;;;;;4910343;56;20980;-39
2022/08/21 23:28:03;;;;;;;;;;;27.10;60.40;;;;;;4952504;52;21481;-28
2022/08/21 23:33:45;;;;;;;9.27;8.38;;;27.10;60.50;;;;;;4945308;52;20394;-26
2022/08/21 23:41:41;;;;;;;9.60;8.68;;;27.10;60.50;;;;;;4935334;52;21544;-32
2022/08/21 23:47:20;;;;;;;9.65;8.65;;;27.00;60.40;;;;;;4965194;52;20979;-36
2022/08/21 23:52:45;;;;;;;9.82;8.52;;;27.00;60.40;;;;;;4909680;56;21537;-27
2022/08/21 23:58:14;;;;;;;9.63;8.25;;;27.00;60.40;;;;;;4934155;52;21035;-34
